Woodville, Wisconsin
Current Conditions -  °F | °C
As of 1:35 AM on Saturday 25 Oct 2014 (Local Time) from KRNH Reporting Station
Clear Clear  
Wind Chill: 50°   Ceiling: Unl
Heat Index: 50°   Visibility: 10mi
Dew Point: 46°   Wind: 7mph
Humidity: 84%   Direction: 270°W
Pressure: 29.9"   Gusts: NA
Location:  44.95°N, 92.29°W
Report Text: KRNH 250635Z AUTO 27006KT 10SM CLR 10/08 A2990 RMK AO2 T01020076
Loading
Personal Weather Stations






























Interactive Weather Map
Tropical Storm Tracking
New forecast layout! Learn more

10-Day Weather Forecast

Advertisements
Track Severe Weather on mobile